sensor_id;sensor_type;location;lat;lon;timestamp;temperature;humidity
25300;DHT22;13241;51.208;4.432;2023-07-09T00:01:27;25.40;99.90
25300;DHT22;13241;51.208;4.432;2023-07-09T00:03:56;25.40;99.90
25300;DHT22;13241;51.208;4.432;2023-07-09T00:06:23;25.30;99.90
25300;DHT22;13241;51.208;4.432;2023-07-09T00:08:50;25.30;99.90
25300;DHT22;13241;51.208;4.432;2023-07-09T00:11:17;25.20;99.90
25300;DHT22;13241;51.208;4.432;2023-07-09T00:13:44;25.30;99.90
25300;DHT22;13241;51.208;4.432;2023-07-09T00:16:21;25.30;99.90
25300;DHT22;13241;51.208;4.432;2023-07-09T00:18:49;25.30;99.90
25300;DHT22;13241;51.208;4.432;2023-07-09T00:21:18;25.20;99.90
25300;DHT22;13241;51.208;4.432;2023-07-09T00:23:46;25.20;99.90
25300;DHT22;13241;51.208;4.432;2023-07-09T00:26:16;25.10;99.90
25300;DHT22;13241;51.208;4.432;2023-07-09T00:28:44;25.20;99.90
25300;DHT22;13241;51.208;4.432;2023-07-09T00:31:13;25.10;99.90
25300;DHT22;13241;51.208;4.432;2023-07-09T00:33:43;25.20;99.90
25300;DHT22;13241;51.208;4.432;2023-07-09T00:36:26;25.00;99.90
25300;DHT22;13241;51.208;4.432;2023-07-09T00:38:55;25.10;99.90
25300;DHT22;13241;51.208;4.432;2023-07-09T00:41:26;25.10;99.90
25300;DHT22;13241;51.208;4.432;2023-07-09T00:43:55;25.10;99.90
25300;DHT22;13241;51.208;4.432;2023-07-09T00:49:00;25.00;99.90
25300;DHT22;13241;51.208;4.432;2023-07-09T00:51:34;25.00;99.90
25300;DHT22;13241;51.208;4.432;2023-07-09T00:54:18;24.90;99.90
25300;DHT22;13241;51.208;4.432;2023-07-09T00:56:47;24.90;99.90
25300;DHT22;13241;51.208;4.432;2023-07-09T00:59:20;24.80;99.90
25300;DHT22;13241;51.208;4.432;2023-07-09T01:01:49;24.80;99.90
25300;DHT22;13241;51.208;4.432;2023-07-09T01:04:19;24.80;99.90
25300;DHT22;13241;51.208;4.432;2023-07-09T01:06:51;24.80;99.90
25300;DHT22;13241;51.208;4.432;2023-07-09T01:09:22;24.90;99.90
25300;DHT22;13241;51.208;4.432;2023-07-09T01:11:49;24.80;99.90
25300;DHT22;13241;51.208;4.432;2023-07-09T01:14:19;24.70;99.90
25300;DHT22;13241;51.208;4.432;2023-07-09T01:16:55;24.70;99.90
25300;DHT22;13241;51.208;4.432;2023-07-09T01:19:29;24.70;99.90
25300;DHT22;13241;51.208;4.432;2023-07-09T01:21:59;24.70;99.90
25300;DHT22;13241;51.208;4.432;2023-07-09T01:24:56;24.60;99.90
25300;DHT22;13241;51.208;4.432;2023-07-09T01:27:37;24.50;99.90
25300;DHT22;13241;51.208;4.432;2023-07-09T01:30:28;24.50;99.90
25300;DHT22;13241;51.208;4.432;2023-07-09T01:32:58;24.50;99.90
25300;DHT22;13241;51.208;4.432;2023-07-09T01:35:28;24.50;99.90
25300;DHT22;13241;51.208;4.432;2023-07-09T01:37:56;24.40;99.90
25300;DHT22;13241;51.208;4.432;2023-07-09T01:40:24;24.40;99.90
25300;DHT22;13241;51.208;4.432;2023-07-09T01:42:59;24.40;99.90
25300;DHT22;13241;51.208;4.432;2023-07-09T01:45:27;24.40;99.90
25300;DHT22;13241;51.208;4.432;2023-07-09T01:47:55;24.40;99.90
25300;DHT22;13241;51.208;4.432;2023-07-09T01:50:22;24.30;99.90
25300;DHT22;13241;51.208;4.432;2023-07-09T01:52:50;24.10;99.90
25300;DHT22;13241;51.208;4.432;2023-07-09T01:55:18;24.20;99.90
25300;DHT22;13241;51.208;4.432;2023-07-09T01:57:45;24.20;99.90
25300;DHT22;13241;51.208;4.432;2023-07-09T02:00:15;24.30;99.90
25300;DHT22;13241;51.208;4.432;2023-07-09T02:02:45;24.30;99.90
25300;DHT22;13241;51.208;4.432;2023-07-09T02:05:16;24.30;99.90
25300;DHT22;13241;51.208;4.432;2023-07-09T02:07:44;24.20;99.90
25300;DHT22;13241;51.208;4.432;2023-07-09T02:10:14;24.30;99.90
25300;DHT22;13241;51.208;4.432;2023-07-09T02:12:41;24.20;99.90
25300;DHT22;13241;51.208;4.432;2023-07-09T02:15:09;24.20;99.90
25300;DHT22;13241;51.208;4.432;2023-07-09T02:17:36;24.20;99.90
25300;DHT22;13241;51.208;4.432;2023-07-09T02:20:04;24.20;99.90
25300;DHT22;13241;51.208;4.432;2023-07-09T02:22:34;24.20;99.90
25300;DHT22;13241;51.208;4.432;2023-07-09T02:25:02;24.10;99.90
25300;DHT22;13241;51.208;4.432;2023-07-09T02:27:29;24.10;99.90
25300;DHT22;13241;51.208;4.432;2023-07-09T02:29:56;24.10;99.90
25300;DHT22;13241;51.208;4.432;2023-07-09T02:32:26;24.00;99.90
25300;DHT22;13241;51.208;4.432;2023-07-09T02:34:54;24.00;99.90
25300;DHT22;13241;51.208;4.432;2023-07-09T02:37:25;24.10;99.90
25300;DHT22;13241;51.208;4.432;2023-07-09T02:39:53;24.20;99.90
25300;DHT22;13241;51.208;4.432;2023-07-09T02:42:22;24.10;99.90
25300;DHT22;13241;51.208;4.432;2023-07-09T02:44:50;24.20;99.90
25300;DHT22;13241;51.208;4.432;2023-07-09T02:47:18;24.20;99.90
25300;DHT22;13241;51.208;4.432;2023-07-09T02:49:46;24.10;99.90
25300;DHT22;13241;51.208;4.432;2023-07-09T02:52:13;24.00;99.90
25300;DHT22;13241;51.208;4.432;2023-07-09T02:54:40;24.00;99.90
25300;DHT22;13241;51.208;4.432;2023-07-09T02:57:07;24.00;99.90
25300;DHT22;13241;51.208;4.432;2023-07-09T02:59:34;23.90;99.90
25300;DHT22;13241;51.208;4.432;2023-07-09T03:02:02;23.90;99.90
25300;DHT22;13241;51.208;4.432;2023-07-09T03:04:30;23.80;99.90
25300;DHT22;13241;51.208;4.432;2023-07-09T03:07:00;23.80;99.90
25300;DHT22;13241;51.208;4.432;2023-07-09T03:09:28;23.80;99.90
25300;DHT22;13241;51.208;4.432;2023-07-09T03:11:55;23.70;99.90
25300;DHT22;13241;51.208;4.432;2023-07-09T03:14:22;23.70;99.90
25300;DHT22;13241;51.208;4.432;2023-07-09T03:16:49;23.80;99.90
25300;DHT22;13241;51.208;4.432;2023-07-09T03:19:16;23.70;99.90
25300;DHT22;13241;51.208;4.432;2023-07-09T03:21:43;23.80;99.90
25300;DHT22;13241;51.208;4.432;2023-07-09T03:24:10;23.70;99.90
25300;DHT22;13241;51.208;4.432;2023-07-09T03:26:37;23.80;99.90
25300;DHT22;13241;51.208;4.432;2023-07-09T03:29:04;23.60;99.90
25300;DHT22;13241;51.208;4.432;2023-07-09T03:31:31;23.70;99.90
25300;DHT22;13241;51.208;4.432;2023-07-09T03:34:02;23.60;99.90
25300;DHT22;13241;51.208;4.432;2023-07-09T03:36:29;23.60;99.90
25300;DHT22;13241;51.208;4.432;2023-07-09T03:38:56;23.60;99.90
25300;DHT22;13241;51.208;4.432;2023-07-09T03:41:24;23.40;99.90
25300;DHT22;13241;51.208;4.432;2023-07-09T03:43:51;23.50;99.90
25300;DHT22;13241;51.208;4.432;2023-07-09T03:46:20;23.40;99.90
25300;DHT22;13241;51.208;4.432;2023-07-09T03:48:47;23.50;99.90
25300;DHT22;13241;51.208;4.432;2023-07-09T03:51:14;23.50;99.90
25300;DHT22;13241;51.208;4.432;2023-07-09T03:53:41;23.50;99.90
25300;DHT22;13241;51.208;4.432;2023-07-09T03:56:08;23.50;99.90
25300;DHT22;13241;51.208;4.432;2023-07-09T03:58:35;23.60;99.90
25300;DHT22;13241;51.208;4.432;2023-07-09T04:01:02;23.50;99.90
25300;DHT22;13241;51.208;4.432;2023-07-09T04:03:29;23.60;99.90
25300;DHT22;13241;51.208;4.432;2023-07-09T04:05:56;23.50;99.90
25300;DHT22;13241;51.208;4.432;2023-07-09T04:08:23;23.50;99.90
25300;DHT22;13241;51.208;4.432;2023-07-09T04:10:59;23.50;99.90
25300;DHT22;13241;51.208;4.432;2023-07-09T04:13:26;23.60;99.90
25300;DHT22;13241;51.208;4.432;2023-07-09T04:15:56;23.60;99.90
25300;DHT22;13241;51.208;4.432;2023-07-09T04:18:23;23.60;99.90
25300;DHT22;13241;51.208;4.432;2023-07-09T04:20:50;23.60;99.90
25300;DHT22;13241;51.208;4.432;2023-07-09T04:23:18;23.70;99.90
25300;DHT22;13241;51.208;4.432;2023-07-09T04:25:46;23.80;99.90
25300;DHT22;13241;51.208;4.432;2023-07-09T04:28:13;23.70;99.90
25300;DHT22;13241;51.208;4.432;2023-07-09T04:30:49;23.80;99.90
25300;DHT22;13241;51.208;4.432;2023-07-09T04:33:18;23.80;99.90
25300;DHT22;13241;51.208;4.432;2023-07-09T04:35:46;23.90;99.90
25300;DHT22;13241;51.208;4.432;2023-07-09T04:38:14;23.90;99.90
25300;DHT22;13241;51.208;4.432;2023-07-09T04:40:41;23.90;99.90
25300;DHT22;13241;51.208;4.432;2023-07-09T04:43:08;23.90;99.90
25300;DHT22;13241;51.208;4.432;2023-07-09T04:45:35;23.90;99.90
25300;DHT22;13241;51.208;4.432;2023-07-09T04:48:02;24.10;99.90
25300;DHT22;13241;51.208;4.432;2023-07-09T04:50:29;24.10;99.90
25300;DHT22;13241;51.208;4.432;2023-07-09T04:52:56;24.20;99.90
25300;DHT22;13241;51.208;4.432;2023-07-09T04:55:23;24.20;99.90
25300;DHT22;13241;51.208;4.432;2023-07-09T04:57:50;24.20;99.90
25300;DHT22;13241;51.208;4.432;2023-07-09T05:00:17;24.20;99.90
25300;DHT22;13241;51.208;4.432;2023-07-09T05:02:44;24.30;99.90
25300;DHT22;13241;51.208;4.432;2023-07-09T05:05:11;24.40;99.90
25300;DHT22;13241;51.208;4.432;2023-07-09T05:07:38;24.40;99.90
25300;DHT22;13241;51.208;4.432;2023-07-09T05:10:06;24.50;99.90
25300;DHT22;13241;51.208;4.432;2023-07-09T05:12:33;24.60;99.90
25300;DHT22;13241;51.208;4.432;2023-07-09T05:15:00;24.70;99.90
25300;DHT22;13241;51.208;4.432;2023-07-09T05:17:27;24.70;99.90
25300;DHT22;13241;51.208;4.432;2023-07-09T05:19:54;24.80;99.90
25300;DHT22;13241;51.208;4.432;2023-07-09T05:22:21;24.80;99.90
25300;DHT22;13241;51.208;4.432;2023-07-09T05:24:48;24.80;99.90
25300;DHT22;13241;51.208;4.432;2023-07-09T05:27:15;24.90;99.90
25300;DHT22;13241;51.208;4.432;2023-07-09T05:29:42;24.90;99.90
25300;DHT22;13241;51.208;4.432;2023-07-09T05:32:09;24.90;99.90
25300;DHT22;13241;51.208;4.432;2023-07-09T05:34:35;24.90;99.90
25300;DHT22;13241;51.208;4.432;2023-07-09T05:37:02;24.90;99.90
25300;DHT22;13241;51.208;4.432;2023-07-09T05:39:29;24.90;99.90
25300;DHT22;13241;51.208;4.432;2023-07-09T05:41:57;25.00;99.90
25300;DHT22;13241;51.208;4.432;2023-07-09T05:44:24;25.00;99.90
25300;DHT22;13241;51.208;4.432;2023-07-09T05:46:51;25.20;99.90
25300;DHT22;13241;51.208;4.432;2023-07-09T05:49:18;25.40;99.90
25300;DHT22;13241;51.208;4.432;2023-07-09T05:51:45;25.30;99.90
25300;DHT22;13241;51.208;4.432;2023-07-09T05:54:11;25.50;99.90
25300;DHT22;13241;51.208;4.432;2023-07-09T05:56:38;25.50;99.90
25300;DHT22;13241;51.208;4.432;2023-07-09T05:59:06;25.60;99.90
25300;DHT22;13241;51.208;4.432;2023-07-09T06:01:32;25.70;99.90
25300;DHT22;13241;51.208;4.432;2023-07-09T06:03:59;25.80;99.90
25300;DHT22;13241;51.208;4.432;2023-07-09T06:06:27;25.80;99.90
25300;DHT22;13241;51.208;4.432;2023-07-09T06:08:54;25.90;99.90
25300;DHT22;13241;51.208;4.432;2023-07-09T06:11:22;26.10;99.90
25300;DHT22;13241;51.208;4.432;2023-07-09T06:13:50;26.10;99.90
25300;DHT22;13241;51.208;4.432;2023-07-09T06:16:17;26.10;99.90
25300;DHT22;13241;51.208;4.432;2023-07-09T06:18:44;26.30;99.90
25300;DHT22;13241;51.208;4.432;2023-07-09T06:21:11;26.30;99.90
25300;DHT22;13241;51.208;4.432;2023-07-09T06:23:39;26.50;99.90
25300;DHT22;13241;51.208;4.432;2023-07-09T06:26:06;26.60;99.90
25300;DHT22;13241;51.208;4.432;2023-07-09T06:28:33;26.80;99.90
25300;DHT22;13241;51.208;4.432;2023-07-09T06:31:00;26.90;99.90
25300;DHT22;13241;51.208;4.432;2023-07-09T06:33:28;27.20;99.90
25300;DHT22;13241;51.208;4.432;2023-07-09T06:36:00;27.30;99.90
25300;DHT22;13241;51.208;4.432;2023-07-09T06:38:28;27.50;99.90
25300;DHT22;13241;51.208;4.432;2023-07-09T06:40:56;27.60;99.90
25300;DHT22;13241;51.208;4.432;2023-07-09T06:43:24;27.70;99.90
25300;DHT22;13241;51.208;4.432;2023-07-09T06:45:53;27.90;99.90
25300;DHT22;13241;51.208;4.432;2023-07-09T06:48:20;28.00;99.90
25300;DHT22;13241;51.208;4.432;2023-07-09T06:50:48;28.20;99.90
25300;DHT22;13241;51.208;4.432;2023-07-09T06:53:15;28.30;99.90
25300;DHT22;13241;51.208;4.432;2023-07-09T06:55:44;28.40;99.90
25300;DHT22;13241;51.208;4.432;2023-07-09T06:58:11;28.40;99.90
25300;DHT22;13241;51.208;4.432;2023-07-09T07:00:38;28.30;99.90
25300;DHT22;13241;51.208;4.432;2023-07-09T07:03:05;28.30;99.90
25300;DHT22;13241;51.208;4.432;2023-07-09T07:05:33;28.30;99.90
25300;DHT22;13241;51.208;4.432;2023-07-09T07:08:01;28.40;99.90
25300;DHT22;13241;51.208;4.432;2023-07-09T07:10:28;28.40;99.90
25300;DHT22;13241;51.208;4.432;2023-07-09T07:12:56;28.30;99.90
25300;DHT22;13241;51.208;4.432;2023-07-09T07:15:23;28.40;99.90
25300;DHT22;13241;51.208;4.432;2023-07-09T07:17:50;28.20;99.90
25300;DHT22;13241;51.208;4.432;2023-07-09T07:20:18;28.30;99.90
25300;DHT22;13241;51.208;4.432;2023-07-09T07:22:45;28.30;99.90
25300;DHT22;13241;51.208;4.432;2023-07-09T07:25:12;28.20;99.90
25300;DHT22;13241;51.208;4.432;2023-07-09T07:27:39;28.30;99.90
25300;DHT22;13241;51.208;4.432;2023-07-09T07:30:07;28.30;99.90
25300;DHT22;13241;51.208;4.432;2023-07-09T07:32:39;28.50;99.90
25300;DHT22;13241;51.208;4.432;2023-07-09T07:35:09;28.40;99.90
25300;DHT22;13241;51.208;4.432;2023-07-09T07:37:36;28.50;99.90
25300;DHT22;13241;51.208;4.432;2023-07-09T07:40:03;28.60;99.90
25300;DHT22;13241;51.208;4.432;2023-07-09T07:42:31;28.60;99.90
25300;DHT22;13241;51.208;4.432;2023-07-09T07:44:58;28.70;99.90
25300;DHT22;13241;51.208;4.432;2023-07-09T07:47:25;28.90;99.90
25300;DHT22;13241;51.208;4.432;2023-07-09T07:49:54;29.00;99.90
25300;DHT22;13241;51.208;4.432;2023-07-09T07:52:21;29.10;99.90
25300;DHT22;13241;51.208;4.432;2023-07-09T07:54:47;29.10;99.90
25300;DHT22;13241;51.208;4.432;2023-07-09T07:57:14;29.00;99.90
25300;DHT22;13241;51.208;4.432;2023-07-09T07:59:41;29.10;99.90
25300;DHT22;13241;51.208;4.432;2023-07-09T08:02:12;29.20;99.90
25300;DHT22;13241;51.208;4.432;2023-07-09T08:04:40;29.30;99.90
25300;DHT22;13241;51.208;4.432;2023-07-09T08:07:09;29.30;99.90
25300;DHT22;13241;51.208;4.432;2023-07-09T08:09:36;29.00;99.90
25300;DHT22;13241;51.208;4.432;2023-07-09T08:12:04;28.70;99.90
25300;DHT22;13241;51.208;4.432;2023-07-09T08:14:42;28.60;99.90
25300;DHT22;13241;51.208;4.432;2023-07-09T08:17:09;28.70;99.90
25300;DHT22;13241;51.208;4.432;2023-07-09T08:19:46;28.80;99.90
25300;DHT22;13241;51.208;4.432;2023-07-09T08:22:15;28.80;99.90
25300;DHT22;13241;51.208;4.432;2023-07-09T08:24:42;28.50;99.90
25300;DHT22;13241;51.208;4.432;2023-07-09T08:27:10;28.70;99.90
25300;DHT22;13241;51.208;4.432;2023-07-09T08:29:36;28.70;99.90
25300;DHT22;13241;51.208;4.432;2023-07-09T08:32:04;28.70;99.90
25300;DHT22;13241;51.208;4.432;2023-07-09T08:34:31;28.80;99.90
25300;DHT22;13241;51.208;4.432;2023-07-09T08:36:58;29.00;99.90
25300;DHT22;13241;51.208;4.432;2023-07-09T08:39:29;29.20;99.90
25300;DHT22;13241;51.208;4.432;2023-07-09T08:42:10;29.40;99.90
25300;DHT22;13241;51.208;4.432;2023-07-09T08:45:10;29.60;99.90
25300;DHT22;13241;51.208;4.432;2023-07-09T08:48:03;29.50;99.90
25300;DHT22;13241;51.208;4.432;2023-07-09T08:50:39;29.40;99.90
25300;DHT22;13241;51.208;4.432;2023-07-09T08:53:57;29.20;99.90
25300;DHT22;13241;51.208;4.432;2023-07-09T08:56:22;29.20;99.90
25300;DHT22;13241;51.208;4.432;2023-07-09T08:58:53;29.30;99.90
25300;DHT22;13241;51.208;4.432;2023-07-09T09:01:41;29.50;99.90
25300;DHT22;13241;51.208;4.432;2023-07-09T09:04:20;29.30;99.90
25300;DHT22;13241;51.208;4.432;2023-07-09T09:10:44;29.20;99.90
25300;DHT22;13241;51.208;4.432;2023-07-09T09:12:59;29.30;99.90
25300;DHT22;13241;51.208;4.432;2023-07-09T09:15:27;29.50;99.90
25300;DHT22;13241;51.208;4.432;2023-07-09T09:18:01;29.70;99.90
25300;DHT22;13241;51.208;4.432;2023-07-09T09:20:35;29.70;99.90
25300;DHT22;13241;51.208;4.432;2023-07-09T09:25:38;29.80;99.90
25300;DHT22;13241;51.208;4.432;2023-07-09T09:28:07;29.80;99.90
25300;DHT22;13241;51.208;4.432;2023-07-09T09:30:35;29.70;99.90
25300;DHT22;13241;51.208;4.432;2023-07-09T09:33:11;29.50;99.90
25300;DHT22;13241;51.208;4.432;2023-07-09T09:35:42;29.40;99.90
25300;DHT22;13241;51.208;4.432;2023-07-09T09:38:17;29.40;99.90
25300;DHT22;13241;51.208;4.432;2023-07-09T09:40:44;29.60;99.90
25300;DHT22;13241;51.208;4.432;2023-07-09T09:43:19;29.70;99.90
25300;DHT22;13241;51.208;4.432;2023-07-09T09:45:48;29.90;99.90
25300;DHT22;13241;51.208;4.432;2023-07-09T09:48:19;30.10;99.90
25300;DHT22;13241;51.208;4.432;2023-07-09T09:50:47;30.50;99.90
25300;DHT22;13241;51.208;4.432;2023-07-09T09:53:21;30.90;99.90
25300;DHT22;13241;51.208;4.432;2023-07-09T09:55:48;31.20;99.90
25300;DHT22;13241;51.208;4.432;2023-07-09T09:58:17;31.50;99.90
25300;DHT22;13241;51.208;4.432;2023-07-09T10:00:50;31.80;99.90
25300;DHT22;13241;51.208;4.432;2023-07-09T10:03:17;31.70;99.90
25300;DHT22;13241;51.208;4.432;2023-07-09T10:05:58;31.80;99.90
25300;DHT22;13241;51.208;4.432;2023-07-09T10:22:52;32.60;99.90
25300;DHT22;13241;51.208;4.432;2023-07-09T10:25:42;32.20;99.90
25300;DHT22;13241;51.208;4.432;2023-07-09T10:34:27;32.10;99.90
25300;DHT22;13241;51.208;4.432;2023-07-09T10:39:53;31.80;99.90
25300;DHT22;13241;51.208;4.432;2023-07-09T10:42:30;31.90;99.90
25300;DHT22;13241;51.208;4.432;2023-07-09T10:45:12;32.00;99.90
25300;DHT22;13241;51.208;4.432;2023-07-09T10:47:49;31.90;99.90
25300;DHT22;13241;51.208;4.432;2023-07-09T10:50:32;31.60;99.90
25300;DHT22;13241;51.208;4.432;2023-07-09T10:55:59;31.20;99.90
25300;DHT22;13241;51.208;4.432;2023-07-09T10:58:35;31.10;99.90
25300;DHT22;13241;51.208;4.432;2023-07-09T11:01:04;30.90;99.90
25300;DHT22;13241;51.208;4.432;2023-07-09T11:03:37;30.70;99.90
25300;DHT22;13241;51.208;4.432;2023-07-09T11:06:14;30.60;99.90
25300;DHT22;13241;51.208;4.432;2023-07-09T11:08:43;30.50;99.90
25300;DHT22;13241;51.208;4.432;2023-07-09T11:11:29;30.50;99.90
25300;DHT22;13241;51.208;4.432;2023-07-09T11:14:01;30.50;99.90
25300;DHT22;13241;51.208;4.432;2023-07-09T11:16:41;30.40;99.90
25300;DHT22;13241;51.208;4.432;2023-07-09T11:19:16;30.30;99.90
25300;DHT22;13241;51.208;4.432;2023-07-09T11:22:12;30.30;99.90
25300;DHT22;13241;51.208;4.432;2023-07-09T11:27:26;30.80;99.90
25300;DHT22;13241;51.208;4.432;2023-07-09T11:30:20;31.10;99.90
25300;DHT22;13241;51.208;4.432;2023-07-09T11:32:47;31.30;99.90
25300;DHT22;13241;51.208;4.432;2023-07-09T11:35:22;31.40;99.90
25300;DHT22;13241;51.208;4.432;2023-07-09T11:37:50;31.50;99.90
25300;DHT22;13241;51.208;4.432;2023-07-09T11:40:20;31.40;99.90
25300;DHT22;13241;51.208;4.432;2023-07-09T11:45:37;31.30;99.90
25300;DHT22;13241;51.208;4.432;2023-07-09T11:48:21;30.80;99.90
25300;DHT22;13241;51.208;4.432;2023-07-09T11:50:51;30.80;99.90
25300;DHT22;13241;51.208;4.432;2023-07-09T11:56:00;30.30;99.90
25300;DHT22;13241;51.208;4.432;2023-07-09T11:58:27;29.80;99.90
25300;DHT22;13241;51.208;4.432;2023-07-09T12:00:56;29.50;99.90
25300;DHT22;13241;51.208;4.432;2023-07-09T12:03:32;29.70;99.90
25300;DHT22;13241;51.208;4.432;2023-07-09T12:06:13;29.90;99.90
25300;DHT22;13241;51.208;4.432;2023-07-09T12:08:42;29.80;99.90
25300;DHT22;13241;51.208;4.432;2023-07-09T12:11:31;29.70;99.90
25300;DHT22;13241;51.208;4.432;2023-07-09T12:14:10;29.40;99.90
25300;DHT22;13241;51.208;4.432;2023-07-09T12:16:40;29.10;99.90
25300;DHT22;13241;51.208;4.432;2023-07-09T12:19:10;28.80;99.90
25300;DHT22;13241;51.208;4.432;2023-07-09T12:21:39;28.70;99.90
25300;DHT22;13241;51.208;4.432;2023-07-09T12:27:00;28.80;99.90
25300;DHT22;13241;51.208;4.432;2023-07-09T12:29:29;28.80;99.90
25300;DHT22;13241;51.208;4.432;2023-07-09T12:31:57;28.70;99.90
25300;DHT22;13241;51.208;4.432;2023-07-09T12:34:24;28.50;99.90
25300;DHT22;13241;51.208;4.432;2023-07-09T12:36:52;28.60;99.90
25300;DHT22;13241;51.208;4.432;2023-07-09T12:39:24;28.70;99.90
25300;DHT22;13241;51.208;4.432;2023-07-09T12:41:55;28.60;99.90
25300;DHT22;13241;51.208;4.432;2023-07-09T12:44:24;28.60;99.90
25300;DHT22;13241;51.208;4.432;2023-07-09T12:46:53;28.50;99.90
25300;DHT22;13241;51.208;4.432;2023-07-09T12:49:23;28.50;99.90
25300;DHT22;13241;51.208;4.432;2023-07-09T12:51:50;28.40;99.90
25300;DHT22;13241;51.208;4.432;2023-07-09T12:54:19;28.20;99.90
25300;DHT22;13241;51.208;4.432;2023-07-09T12:56:51;28.10;99.90
25300;DHT22;13241;51.208;4.432;2023-07-09T12:59:24;27.80;99.90
25300;DHT22;13241;51.208;4.432;2023-07-09T13:04:37;27.10;99.90
25300;DHT22;13241;51.208;4.432;2023-07-09T13:07:30;26.80;99.90
25300;DHT22;13241;51.208;4.432;2023-07-09T13:10:05;26.30;99.90
25300;DHT22;13241;51.208;4.432;2023-07-09T13:12:33;25.30;99.90
25300;DHT22;13241;51.208;4.432;2023-07-09T13:15:00;24.60;99.90
25300;DHT22;13241;51.208;4.432;2023-07-09T13:17:30;24.30;99.90
25300;DHT22;13241;51.208;4.432;2023-07-09T13:19:57;24.10;99.90
25300;DHT22;13241;51.208;4.432;2023-07-09T13:22:28;24.00;99.90
25300;DHT22;13241;51.208;4.432;2023-07-09T13:24:54;24.00;99.90
25300;DHT22;13241;51.208;4.432;2023-07-09T13:27:21;23.90;99.90
25300;DHT22;13241;51.208;4.432;2023-07-09T13:29:50;23.80;99.90
25300;DHT22;13241;51.208;4.432;2023-07-09T13:32:18;23.80;99.90
25300;DHT22;13241;51.208;4.432;2023-07-09T13:34:45;23.90;99.90
25300;DHT22;13241;51.208;4.432;2023-07-09T13:37:14;23.90;99.90
25300;DHT22;13241;51.208;4.432;2023-07-09T13:39:42;23.90;99.90
25300;DHT22;13241;51.208;4.432;2023-07-09T13:42:13;24.00;99.90
25300;DHT22;13241;51.208;4.432;2023-07-09T13:44:42;24.00;99.90
25300;DHT22;13241;51.208;4.432;2023-07-09T13:47:14;24.10;99.90
25300;DHT22;13241;51.208;4.432;2023-07-09T13:49:43;24.20;99.90
25300;DHT22;13241;51.208;4.432;2023-07-09T13:52:16;24.20;99.90
25300;DHT22;13241;51.208;4.432;2023-07-09T13:54:44;24.20;99.90
25300;DHT22;13241;51.208;4.432;2023-07-09T13:57:16;24.30;99.90
25300;DHT22;13241;51.208;4.432;2023-07-09T13:59:44;24.30;99.90
25300;DHT22;13241;51.208;4.432;2023-07-09T14:02:29;24.50;99.90
25300;DHT22;13241;51.208;4.432;2023-07-09T14:05:03;24.60;99.90
25300;DHT22;13241;51.208;4.432;2023-07-09T14:07:33;24.80;99.90
25300;DHT22;13241;51.208;4.432;2023-07-09T14:10:01;24.90;99.90
25300;DHT22;13241;51.208;4.432;2023-07-09T14:12:29;25.20;99.90
25300;DHT22;13241;51.208;4.432;2023-07-09T14:14:59;25.60;99.90
25300;DHT22;13241;51.208;4.432;2023-07-09T14:17:27;26.10;99.90
25300;DHT22;13241;51.208;4.432;2023-07-09T14:19:54;26.70;99.90
25300;DHT22;13241;51.208;4.432;2023-07-09T14:22:36;26.80;99.90
25300;DHT22;13241;51.208;4.432;2023-07-09T14:25:05;26.70;99.90
25300;DHT22;13241;51.208;4.432;2023-07-09T14:27:32;26.40;99.90
25300;DHT22;13241;51.208;4.432;2023-07-09T14:29:59;26.40;99.90
25300;DHT22;13241;51.208;4.432;2023-07-09T14:32:37;26.60;99.90
25300;DHT22;13241;51.208;4.432;2023-07-09T14:35:17;26.90;99.90
25300;DHT22;13241;51.208;4.432;2023-07-09T14:37:46;27.40;99.90
25300;DHT22;13241;51.208;4.432;2023-07-09T14:40:14;28.50;99.90
25300;DHT22;13241;51.208;4.432;2023-07-09T14:42:43;29.10;99.90
25300;DHT22;13241;51.208;4.432;2023-07-09T14:45:24;29.70;99.90
25300;DHT22;13241;51.208;4.432;2023-07-09T14:47:52;29.70;99.90
25300;DHT22;13241;51.208;4.432;2023-07-09T14:50:19;29.50;99.90
25300;DHT22;13241;51.208;4.432;2023-07-09T14:52:48;29.90;99.90
25300;DHT22;13241;51.208;4.432;2023-07-09T14:55:18;31.10;99.90
25300;DHT22;13241;51.208;4.432;2023-07-09T14:57:46;31.90;99.90
25300;DHT22;13241;51.208;4.432;2023-07-09T15:00:18;32.20;99.90
25300;DHT22;13241;51.208;4.432;2023-07-09T15:02:49;32.50;99.90
25300;DHT22;13241;51.208;4.432;2023-07-09T15:05:18;32.90;99.90
25300;DHT22;13241;51.208;4.432;2023-07-09T15:07:45;32.50;99.90
25300;DHT22;13241;51.208;4.432;2023-07-09T15:10:24;31.30;99.90
25300;DHT22;13241;51.208;4.432;2023-07-09T15:12:53;30.50;99.90
25300;DHT22;13241;51.208;4.432;2023-07-09T15:15:28;30.70;99.90
25300;DHT22;13241;51.208;4.432;2023-07-09T15:17:56;31.20;99.90
25300;DHT22;13241;51.208;4.432;2023-07-09T15:20:28;31.90;99.90
25300;DHT22;13241;51.208;4.432;2023-07-09T15:22:59;32.80;99.90
25300;DHT22;13241;51.208;4.432;2023-07-09T15:25:28;33.40;99.90
25300;DHT22;13241;51.208;4.432;2023-07-09T15:27:55;34.00;99.90
25300;DHT22;13241;51.208;4.432;2023-07-09T15:30:25;33.50;99.90
25300;DHT22;13241;51.208;4.432;2023-07-09T15:32:55;32.50;99.90
25300;DHT22;13241;51.208;4.432;2023-07-09T15:35:23;31.90;99.90
25300;DHT22;13241;51.208;4.432;2023-07-09T15:37:50;32.00;99.90
25300;DHT22;13241;51.208;4.432;2023-07-09T15:40:22;32.80;99.90
25300;DHT22;13241;51.208;4.432;2023-07-09T15:42:54;33.70;99.90
25300;DHT22;13241;51.208;4.432;2023-07-09T15:45:21;33.70;99.90
25300;DHT22;13241;51.208;4.432;2023-07-09T15:47:50;33.70;99.90
25300;DHT22;13241;51.208;4.432;2023-07-09T15:50:21;33.30;99.90
25300;DHT22;13241;51.208;4.432;2023-07-09T15:52:50;32.50;99.90
25300;DHT22;13241;51.208;4.432;2023-07-09T15:55:20;31.30;99.90
25300;DHT22;13241;51.208;4.432;2023-07-09T15:57:49;30.50;99.90
25300;DHT22;13241;51.208;4.432;2023-07-09T16:00:27;30.30;99.90
25300;DHT22;13241;51.208;4.432;2023-07-09T16:02:55;31.10;99.90
25300;DHT22;13241;51.208;4.432;2023-07-09T16:05:42;31.40;99.90
25300;DHT22;13241;51.208;4.432;2023-07-09T16:08:11;30.90;99.90
25300;DHT22;13241;51.208;4.432;2023-07-09T16:10:38;29.80;99.90
25300;DHT22;13241;51.208;4.432;2023-07-09T16:13:19;29.10;99.90
25300;DHT22;13241;51.208;4.432;2023-07-09T16:15:47;28.50;99.90
25300;DHT22;13241;51.208;4.432;2023-07-09T16:18:13;27.90;99.90
25300;DHT22;13241;51.208;4.432;2023-07-09T16:20:42;27.50;99.90
25300;DHT22;13241;51.208;4.432;2023-07-09T16:23:18;26.90;99.90
25300;DHT22;13241;51.208;4.432;2023-07-09T16:25:47;26.40;99.90
25300;DHT22;13241;51.208;4.432;2023-07-09T16:28:16;26.10;99.90
25300;DHT22;13241;51.208;4.432;2023-07-09T16:30:46;25.70;99.90
25300;DHT22;13241;51.208;4.432;2023-07-09T16:33:13;25.90;99.90
25300;DHT22;13241;51.208;4.432;2023-07-09T16:35:41;25.80;99.90
25300;DHT22;13241;51.208;4.432;2023-07-09T16:38:11;25.80;99.90